^^
Datos históricos de la estación: Murcia-Puente Tocinos
Diario Informe para Diciembre 8, 2019 Unidades:  Ambas    Ingés   Métrico
Diario Semanal Mensual Anual
  Máxima: Mínima: Promedio:
Temperatura: 67.5 °F /  19.7 °C 46.6 °F /  8.1 °C 55.4 °F /  13 °C
Punto de rocio: 50.2 °F /  10.1 °C 42.3 °F /  5.7 °C 45.9 °F /  7.7 °C
Humedad: 90% 41% 72%
Velocidad viento: 10.2mph /  16.4km/h - 4.3mph /  7km/h
Racha viento: 21mph /  33.8km/h - -
Viento- - SSO
Presión: 30.2 in /  1024.1 hPa 30.1 in /  1020.6 hPa -
Precipitación: 0 in /  0.0 mm    
 
 
Tabla de datos para Diciembre 8, 2019
Hora Temperatura Punto de rocio Presión Viento Velocidad viento Racha viento Humedad Intensidad lluvia(por hora) Nubes
00:04 50.7 °F /  10.4 °C 46.8 °F /  8.2 °C 30.2in /  1023.7hPa SSE 4.3mph /  6.9km/h 6mph /  9.7km/h 86% 0in /  0.0mm
00:09 50.5 °F /  10.3 °C 46.8 °F /  8.2 °C 30.2in /  1023.7hPa Sur 4.3mph /  6.9km/h 6mph /  9.7km/h 87% 0in /  0.0mm
00:14 50.4 °F /  10.2 °C 46.9 °F /  8.3 °C 30.2in /  1023.7hPa Sur 3.9mph /  6.3km/h 5mph /  8km/h 88% 0in /  0.0mm
00:19 50.4 °F /  10.2 °C 46.9 °F /  8.3 °C 30.2in /  1023.7hPa SSO 3.6mph /  5.8km/h 5mph /  8km/h 88% 0in /  0.0mm
00:24 50.4 °F /  10.2 °C 46.9 °F /  8.3 °C 30.2in /  1023.8hPa SSO 3.3mph /  5.3km/h 5.4mph /  8.7km/h 88% 0in /  0.0mm
00:29 50.5 °F /  10.3 °C 47.1 °F /  8.4 °C 30.2in /  1023.8hPa SO 3.1mph /  5km/h 6mph /  9.7km/h 88% 0in /  0.0mm
00:34 50.5 °F /  10.3 °C 47.1 °F /  8.4 °C 30.2in /  1023.8hPa SO 3.1mph /  5km/h 5.8mph /  9.3km/h 88% 0in /  0.0mm
00:39 50.5 °F /  10.3 °C 47.1 °F /  8.4 °C 30.2in /  1023.8hPa SO 3.1mph /  5km/h 6mph /  9.7km/h 88% 0in /  0.0mm
00:44 50.5 °F /  10.3 °C 47.1 °F /  8.4 °C 30.2in /  1023.6hPa SO 2.7mph /  4.4km/h 5mph /  8km/h 88% 0in /  0.0mm
00:49 50.5 °F /  10.3 °C 47.1 °F /  8.4 °C 30.2in /  1023.6hPa SSO 2.4mph /  3.9km/h 5mph /  8km/h 88% 0in /  0.0mm
00:54 50.4 °F /  10.2 °C 46.9 °F /  8.3 °C 30.2in /  1023.6hPa Sur 2.7mph /  4.3km/h 4.7mph /  7.6km/h 88% 0in /  0.0mm
00:59 50.4 °F /  10.2 °C 46.9 °F /  8.3 °C 30.2in /  1023.5hPa Sur 2.9mph /  4.7km/h 5mph /  8km/h 88% 0in /  0.0mm
01:04 50.4 °F /  10.2 °C 46.8 °F /  8.2 °C 30.2in /  1023.5hPa SSO 3mph /  4.8km/h 5mph /  8km/h 88% 0in /  0.0mm
01:09 50.2 °F /  10.1 °C 46.8 °F /  8.2 °C 30.2in /  1023.5hPa Sur 3.1mph /  5km/h 5mph /  8km/h 88% 0in /  0.0mm
01:14 50 °F /  10 °C 46.6 °F /  8.1 °C 30.2in /  1023.4hPa SSE 2.7mph /  4.4km/h 5mph /  8km/h 87.8% 0in /  0.0mm
01:19 49.6 °F /  9.8 °C 46 °F /  7.8 °C 30.2in /  1023.4hPa SE 2.4mph /  3.9km/h 4.7mph /  7.6km/h 87% 0in /  0.0mm
01:24 49.5 °F /  9.7 °C 45.7 °F /  7.6 °C 30.2in /  1023.4hPa SSE 2.7mph /  4.3km/h 5mph /  8km/h 87.2% 0in /  0.0mm
01:29 48.9 °F /  9.4 °C 45.5 °F /  7.5 °C 30.2in /  1023.4hPa Sur 2.9mph /  4.7km/h 5mph /  8km/h 88% 0in /  0.0mm
01:34 48.7 °F /  9.3 °C 45.7 °F /  7.6 °C 30.2in /  1023.4hPa Sur 3mph /  4.8km/h 5mph /  8km/h 88.8% 0in /  0.0mm
01:39 48.7 °F /  9.3 °C 45.7 °F /  7.6 °C 30.2in /  1023.4hPa Sur 3.1mph /  5km/h 5mph /  8km/h 89% 0in /  0.0mm
01:44 48.7 °F /  9.3 °C 45.7 °F /  7.6 °C 30.2in /  1023.4hPa Sur 3mph /  4.8km/h 5mph /  8km/h 89% 0in /  0.0mm
01:49 48.7 °F /  9.3 °C 45.7 °F /  7.6 °C 30.2in /  1023.4hPa Sur 2.9mph /  4.7km/h 5mph /  8km/h 89% 0in /  0.0mm
01:54 48.7 °F /  9.3 °C 45.7 °F /  7.6 °C 30.2in /  1023.4hPa Sur 2.4mph /  3.8km/h 4.7mph /  7.6km/h 89.5% 0in /  0.0mm
01:59 48.7 °F /  9.3 °C 45.7 °F /  7.6 °C 30.2in /  1023.3hPa SSE 2mph /  3.2km/h 5.8mph /  9.3km/h 89.4% 0in /  0.0mm
02:04 48.6 °F /  9.2 °C 45.5 °F /  7.5 °C 30.2in /  1023.3hPa SSE 3.2mph /  5.1km/h 6mph /  9.7km/h 89% 0in /  0.0mm
02:09 48.6 °F /  9.2 °C 45.7 °F /  7.6 °C 30.2in /  1023.3hPa Sur 4mph /  6.5km/h 6.2mph /  10km/h 89.7% 0in /  0.0mm
02:14 48.7 °F /  9.3 °C 45.9 °F /  7.7 °C 30.2in /  1023.3hPa SSO 4.2mph /  6.7km/h 8.1mph /  13km/h 90% 0in /  0.0mm
02:19 48.7 °F /  9.3 °C 45.7 °F /  7.6 °C 30.2in /  1023.3hPa Sur 4.3mph /  6.9km/h 8.1mph /  13km/h 89.5% 0in /  0.0mm
02:24 48.7 °F /  9.3 °C 45.7 °F /  7.6 °C 30.2in /  1023.3hPa Sur 4.5mph /  7.3km/h 7.4mph /  11.9km/h 89% 0in /  0.0mm
02:29 48.7 °F /  9.3 °C 45.7 °F /  7.6 °C 30.2in /  1023.2hPa Sur 4.7mph /  7.6km/h 7mph /  11.3km/h 89% 0in /  0.0mm
02:34 48.7 °F /  9.3 °C 45.7 °F /  7.6 °C 30.2in /  1023.2hPa SSO 4.3mph /  7km/h 7mph /  11.3km/h 89% 0in /  0.0mm
02:39 48.7 °F /  9.3 °C 45.7 °F /  7.6 °C 30.2in /  1023.3hPa SSO 4mph /  6.5km/h 6mph /  9.7km/h 89% 0in /  0.0mm
02:44 48.7 °F /  9.3 °C 45.7 °F /  7.6 °C 30.2in /  1023.3hPa SO 4mph /  6.5km/h 6.9mph /  11.1km/h 89% 0in /  0.0mm
02:49 48.9 °F /  9.4 °C 45.9 °F /  7.7 °C 30.2in /  1023.3hPa SO 4mph /  6.5km/h 7mph /  11.3km/h 89% 0in /  0.0mm
02:54 48.9 °F /  9.4 °C 45.9 °F /  7.7 °C 30.2in /  1023.4hPa SSO 4mph /  6.5km/h 6mph /  9.7km/h 89% 0in /  0.0mm
02:59 48.9 °F /  9.4 °C 45.7 °F /  7.6 °C 30.2in /  1023.4hPa Sur 4mph /  6.5km/h 6.2mph /  10km/h 88.3% 0in /  0.0mm
03:04 48.7 °F /  9.3 °C 45.3 °F /  7.4 °C 30.2in /  1023.4hPa Sur 4.2mph /  6.7km/h 8.1mph /  13km/h 88% 0in /  0.0mm
03:09 48.6 °F /  9.2 °C 45.1 °F /  7.3 °C 30.2in /  1023.4hPa SO 4.3mph /  6.9km/h 8mph /  12.9km/h 88% 0in /  0.0mm
03:14 48.6 °F /  9.2 °C 45.1 °F /  7.3 °C 30.2in /  1023.3hPa SSO 4.8mph /  7.8km/h 8.1mph /  13km/h 88% 0in /  0.0mm
03:19 48.6 °F /  9.2 °C 45.1 °F /  7.3 °C 30.2in /  1023.3hPa SSO 5.2mph /  8.4km/h 8mph /  12.9km/h 88% 0in /  0.0mm
03:24 48.4 °F /  9.1 °C 45 °F /  7.2 °C 30.2in /  1023.3hPa SO 5.2mph /  8.4km/h 8.1mph /  13km/h 88.1% 0in /  0.0mm
03:29 48.4 °F /  9.1 °C 45.3 °F /  7.4 °C 30.2in /  1023.2hPa SO 5.2mph /  8.4km/h 8mph /  12.9km/h 89% 0in /  0.0mm
03:34 48.4 °F /  9.1 °C 45.3 °F /  7.4 °C 30.2in /  1023.2hPa SO 4.9mph /  7.9km/h 7mph /  11.3km/h 89% 0in /  0.0mm
03:39 48.4 °F /  9.1 °C 45.3 °F /  7.4 °C 30.2in /  1023.2hPa SO 4.7mph /  7.6km/h 7mph /  11.3km/h 89% 0in /  0.0mm
03:44 48.4 °F /  9.1 °C 45.3 °F /  7.4 °C 30.2in /  1023.1hPa SO 3.8mph /  6.1km/h 5mph /  8km/h 89% 0in /  0.0mm
03:49 48.4 °F /  9.1 °C 45.3 °F /  7.4 °C 30.2in /  1023.1hPa SO 3.1mph /  5km/h 5mph /  8km/h 89% 0in /  0.0mm
03:54 48.4 °F /  9.1 °C 45.3 °F /  7.4 °C 30.2in /  1023.1hPa OSO 2.7mph /  4.4km/h 5mph /  8km/h 89% 0in /  0.0mm
03:59 48.4 °F /  9.1 °C 45.3 °F /  7.4 °C 30.2in /  1023.1hPa OSO 2.4mph /  3.9km/h 5mph /  8km/h 89% 0in /  0.0mm
04:04 48.4 °F /  9.1 °C 45.3 °F /  7.4 °C 30.2in /  1023.1hPa SO 2.1mph /  3.3km/h 4.6mph /  7.4km/h 89% 0in /  0.0mm
04:09 48.2 °F /  9 °C 45 °F /  7.2 °C 30.2in /  1023.1hPa OSO 1.8mph /  2.9km/h 5mph /  8km/h 89% 0in /  0.0mm
04:14 48 °F /  8.9 °C 45 °F /  7.2 °C 30.2in /  1023.0hPa SO 2.4mph /  3.9km/h 5.9mph /  9.5km/h 89% 0in /  0.0mm
04:19 47.8 °F /  8.8 °C 44.8 °F /  7.1 °C 30.2in /  1023.0hPa OSO 2.9mph /  4.7km/h 6mph /  9.7km/h 89% 0in /  0.0mm
04:24 47.7 °F /  8.7 °C 44.6 °F /  7 °C 30.2in /  1023.0hPa OSO 3.3mph /  5.3km/h 6mph /  9.7km/h 89% 0in /  0.0mm
04:29 47.7 °F /  8.7 °C 44.6 °F /  7 °C 30.2in /  1022.9hPa SO 3.6mph /  5.8km/h 5.2mph /  8.4km/h 89% 0in /  0.0mm
04:34 47.7 °F /  8.7 °C 44.6 °F /  7 °C 30.2in /  1022.9hPa SO 3.3mph /  5.3km/h 5mph /  8km/h 89% 0in /  0.0mm
04:39 47.7 °F /  8.7 °C 44.8 °F /  7.1 °C 30.2in /  1022.9hPa SO 3.1mph /  5km/h 5mph /  8km/h 89.6% 0in /  0.0mm
04:44 47.7 °F /  8.7 °C 45 °F /  7.2 °C 30.2in /  1022.9hPa SO 3mph /  4.8km/h 5mph /  8km/h 90% 0in /  0.0mm
04:49 47.8 °F /  8.8 °C 44.8 °F /  7.1 °C 30.2in /  1022.9hPa SO 2.9mph /  4.7km/h 5mph /  8km/h 89.2% 0in /  0.0mm
04:54 47.8 °F /  8.8 °C 44.8 °F /  7.1 °C 30.2in /  1022.9hPa SO 2.6mph /  4.2km/h 5mph /  8km/h 89% 0in /  0.0mm
04:59 47.7 °F /  8.7 °C 44.6 °F /  7 °C 30.2in /  1022.8hPa SO 2.4mph /  3.9km/h 5.2mph /  8.4km/h 89% 0in /  0.0mm
05:04 47.7 °F /  8.7 °C 44.6 °F /  7 °C 30.2in /  1022.8hPa SO 2.8mph /  4.5km/h 5.9mph /  9.5km/h 89% 0in /  0.0mm
05:09 47.7 °F /  8.7 °C 44.6 °F /  7 °C 30.2in /  1022.8hPa SO 3.1mph /  5km/h 6mph /  9.7km/h 89% 0in /  0.0mm
05:14 47.5 °F /  8.6 °C 44.4 °F /  6.9 °C 30.2in /  1022.8hPa SO 2.5mph /  4km/h 5mph /  8km/h 89% 0in /  0.0mm
05:19 47.5 °F /  8.6 °C 44.4 °F /  6.9 °C 30.2in /  1022.8hPa SO 2mph /  3.2km/h 4.6mph /  7.4km/h 89% 0in /  0.0mm
05:24 47.7 °F /  8.7 °C 44.6 °F /  7 °C 30.2in /  1022.8hPa SO 2mph /  3.2km/h 5mph /  8km/h 89% 0in /  0.0mm
05:29 47.7 °F /  8.7 °C 44.6 °F /  7 °C 30.2in /  1022.8hPa SO 2mph /  3.2km/h 5mph /  8km/h 89% 0in /  0.0mm
05:34 47.7 °F /  8.7 °C 44.6 °F /  7 °C 30.2in /  1022.8hPa SO 2.2mph /  3.6km/h 5.8mph /  9.3km/h 89% 0in /  0.0mm
05:39 47.7 °F /  8.7 °C 44.6 °F /  7 °C 30.2in /  1022.8hPa SO 2.4mph /  3.9km/h 6mph /  9.7km/h 89% 0in /  0.0mm
05:44 47.7 °F /  8.7 °C 44.4 °F /  6.9 °C 30.2in /  1022.8hPa SO 3.3mph /  5.3km/h 6mph /  9.7km/h 88.3% 0in /  0.0mm
05:49 47.8 °F /  8.8 °C 44.4 °F /  6.9 °C 30.2in /  1022.8hPa Sur 4mph /  6.5km/h 5.8mph /  9.3km/h 88% 0in /  0.0mm
05:54 47.8 °F /  8.8 °C 44.2 °F /  6.8 °C 30.2in /  1022.8hPa Sur 3.8mph /  6.1km/h 6mph /  9.7km/h 87.3% 0in /  0.0mm
05:59 47.8 °F /  8.8 °C 44.1 °F /  6.7 °C 30.2in /  1022.8hPa Sur 3.6mph /  5.8km/h 5mph /  8km/h 87% 0in /  0.0mm
06:04 47.7 °F /  8.7 °C 44.1 °F /  6.7 °C 30.2in /  1022.8hPa Sur 2.5mph /  4.1km/h 6.4mph /  10.3km/h 87% 0in /  0.0mm
06:09 47.5 °F /  8.6 °C 43.9 °F /  6.6 °C 30.2in /  1022.8hPa Sur 1.8mph /  2.9km/h 7mph /  11.3km/h 87% 0in /  0.0mm
06:14 47.3 °F /  8.5 °C 43.7 °F /  6.5 °C 30.2in /  1022.7hPa SSO 3mph /  4.9km/h 6mph /  9.7km/h 87% 0in /  0.0mm
06:19 47.1 °F /  8.4 °C 43.5 °F /  6.4 °C 30.2in /  1022.7hPa SSO 4mph /  6.5km/h 6.9mph /  11.1km/h 87% 0in /  0.0mm
06:24 47.1 °F /  8.4 °C 43.3 °F /  6.3 °C 30.2in /  1022.7hPa SSO 4mph /  6.5km/h 7mph /  11.3km/h 87% 0in /  0.0mm
06:29 47.3 °F /  8.5 °C 43.5 °F /  6.4 °C 30.2in /  1022.7hPa SSO 4mph /  6.5km/h 7mph /  11.3km/h 87% 0in /  0.0mm
06:34 47.3 °F /  8.5 °C 43.7 °F /  6.5 °C 30.2in /  1022.7hPa SSO 4mph /  6.5km/h 8.1mph /  13km/h 87% 0in /  0.0mm
06:39 47.5 °F /  8.6 °C 43.9 °F /  6.6 °C 30.2in /  1022.7hPa SO 4mph /  6.5km/h 8.1mph /  13km/h 86.9% 0in /  0.0mm
06:44 47.7 °F /  8.7 °C 43.7 °F /  6.5 °C 30.2in /  1022.7hPa SO 4.7mph /  7.5km/h 8mph /  12.9km/h 86% 0in /  0.0mm
06:49 47.7 °F /  8.7 °C 43.7 °F /  6.5 °C 30.2in /  1022.7hPa OSO 5.2mph /  8.4km/h 6mph /  9.7km/h 85.9% 0in /  0.0mm
06:54 47.5 °F /  8.6 °C 43.2 °F /  6.2 °C 30.2in /  1022.8hPa SO 4mph /  6.5km/h 6mph /  9.7km/h 85.4% 0in /  0.0mm
06:59 47.1 °F /  8.4 °C 43.2 °F /  6.2 °C 30.2in /  1022.8hPa Oeste 3.1mph /  5km/h 6mph /  9.7km/h 86% 0in /  0.0mm
07:04 46.9 °F /  8.3 °C 43 °F /  6.1 °C 30.2in /  1022.8hPa OSO 3mph /  4.8km/h 5mph /  8km/h 86% 0in /  0.0mm
07:09 46.8 °F /  8.2 °C 43 °F /  6.1 °C 30.2in /  1022.8hPa Oeste 2.9mph /  4.7km/h 5mph /  8km/h 87% 0in /  0.0mm
07:14 46.6 °F /  8.1 °C 43 °F /  6.1 °C 30.2in /  1022.8hPa OSO 3mph /  4.8km/h 5.8mph /  9.3km/h 87% 0in /  0.0mm
07:19 46.6 °F /  8.1 °C 43 °F /  6.1 °C 30.2in /  1022.8hPa OSO 3.1mph /  5km/h 6.4mph /  10.3km/h 87.5% 0in /  0.0mm
07:24 46.6 °F /  8.1 °C 43.2 °F /  6.2 °C 30.2in /  1022.8hPa SO 3.6mph /  5.8km/h 8.1mph /  13km/h 88% 0in /  0.0mm
07:29 46.8 °F /  8.2 °C 43.3 °F /  6.3 °C 30.2in /  1022.8hPa OSO 4mph /  6.5km/h 8mph /  12.9km/h 87.8% 0in /  0.0mm
07:34 46.9 °F /  8.3 °C 43.2 °F /  6.2 °C 30.2in /  1022.8hPa OSO 3.1mph /  5km/h 4.6mph /  7.4km/h 87% 0in /  0.0mm
07:39 46.9 °F /  8.3 °C 43.3 °F /  6.3 °C 30.2in /  1023.0hPa OSO 2.4mph /  3.9km/h 5mph /  8km/h 87% 0in /  0.0mm
07:44 47.1 °F /  8.4 °C 43.3 °F /  6.3 °C 30.2in /  1023.0hPa OSO 1.9mph /  3km/h 2mph /  3.2km/h 86.7% 0in /  0.0mm
07:49 46.9 °F /  8.3 °C 43.2 °F /  6.2 °C 30.2in /  1023.0hPa OSO 1.4mph /  2.2km/h 2.9mph /  4.7km/h 86.3% 0in /  0.0mm
07:54 47.1 °F /  8.4 °C 43.3 °F /  6.3 °C 30.2in /  1023.1hPa OSO 1.4mph /  2.2km/h 4.3mph /  6.9km/h 87% 0in /  0.0mm
07:59 47.3 °F /  8.5 °C 43.5 °F /  6.4 °C 30.2in /  1023.1hPa SSO 1.4mph /  2.2km/h 5mph /  8km/h 87% 0in /  0.0mm
08:04 47.7 °F /  8.7 °C 43.9 °F /  6.6 °C 30.2in /  1023.1hPa SSO 2.4mph /  3.8km/h 6.9mph /  11.1km/h 86.5% 0in /  0.0mm
08:09 48.2 °F /  9 °C 44.1 °F /  6.7 °C 30.2in /  1023.2hPa SSO 3.1mph /  5km/h 7mph /  11.3km/h 85.3% 0in /  0.0mm
08:14 48.6 °F /  9.2 °C 43.9 °F /  6.6 °C 30.2in /  1023.2hPa SSO 3.8mph /  6.1km/h 6mph /  9.7km/h 84% 0in /  0.0mm
08:19 48.7 °F /  9.3 °C 43.9 °F /  6.6 °C 30.2in /  1023.2hPa SSO 4.3mph /  6.9km/h 6mph /  9.7km/h 83.1% 0in /  0.0mm
08:24 48.7 °F /  9.3 °C 43.7 °F /  6.5 °C 30.2in /  1023.2hPa SSO 4.3mph /  6.9km/h 6.2mph /  10km/h 83% 0in /  0.0mm
08:29 48.6 °F /  9.2 °C 43.5 °F /  6.4 °C 30.2in /  1023.2hPa Sur 4.3mph /  6.9km/h 6.9mph /  11.1km/h 83% 0in /  0.0mm
08:34 48.4 °F /  9.1 °C 43.5 °F /  6.4 °C 30.2in /  1023.2hPa Sur 4.3mph /  6.9km/h 8.1mph /  13km/h 83% 0in /  0.0mm
08:39 48.2 °F /  9 °C 43.2 °F /  6.2 °C 30.2in /  1023.4hPa Sur 4.3mph /  6.9km/h 8mph /  12.9km/h 83% 0in /  0.0mm
08:44 48 °F /  8.9 °C 43.2 °F /  6.2 °C 30.2in /  1023.4hPa SSE 4.8mph /  7.8km/h 7mph /  11.3km/h 83.2% 0in /  0.0mm
08:49 48 °F /  8.9 °C 43.3 °F /  6.3 °C 30.2in /  1023.4hPa Sur 5.2mph /  8.4km/h 7mph /  11.3km/h 84% 0in /  0.0mm
08:54 48 °F /  8.9 °C 43.3 °F /  6.3 °C 30.2in /  1023.4hPa Sur 4.7mph /  7.6km/h 6.2mph /  10km/h 84% 0in /  0.0mm
08:59 48 °F /  8.9 °C 43.5 °F /  6.4 °C 30.2in /  1023.4hPa Sur 4.3mph /  6.9km/h 6.9mph /  11.1km/h 84% 0in /  0.0mm
09:04 48.4 °F /  9.1 °C 43.7 °F /  6.5 °C 30.2in /  1023.4hPa Sur 4.5mph /  7.3km/h 9.2mph /  14.8km/h 83.8% 0in /  0.0mm
09:09 48.7 °F /  9.3 °C 43.7 °F /  6.5 °C 30.2in /  1023.5hPa SSO 4.7mph /  7.6km/h 9mph /  14.5km/h 83% 0in /  0.0mm
09:14 49.3 °F /  9.6 °C 44.1 °F /  6.7 °C 30.2in /  1023.5hPa SSO 5.1mph /  8.2km/h 9.2mph /  14.8km/h 82.3% 0in /  0.0mm
09:19 49.6 °F /  9.8 °C 44.1 °F /  6.7 °C 30.2in /  1023.5hPa SSO 5.4mph /  8.7km/h 9.2mph /  14.8km/h 81% 0in /  0.0mm
09:24 50.4 °F /  10.2 °C 44.2 °F /  6.8 °C 30.2in /  1023.6hPa SSO 5.3mph /  8.5km/h 9.2mph /  14.8km/h 79.8% 0in /  0.0mm
09:29 50.7 °F /  10.4 °C 44.4 °F /  6.9 °C 30.2in /  1023.6hPa SO 5.2mph /  8.4km/h 9.2mph /  14.8km/h 78.7% 0in /  0.0mm
09:34 51.1 °F /  10.6 °C 44.4 °F /  6.9 °C 30.2in /  1023.6hPa SO 5.2mph /  8.4km/h 7.4mph /  11.9km/h 77.9% 0in /  0.0mm
09:39 51.4 °F /  10.8 °C 44.4 °F /  6.9 °C 30.2in /  1023.7hPa SO 5.2mph /  8.4km/h 8.5mph /  13.7km/h 77% 0in /  0.0mm
09:44 51.8 °F /  11 °C 44.4 °F /  6.9 °C 30.2in /  1023.7hPa SO 4.9mph /  7.9km/h 9mph /  14.5km/h 76.2% 0in /  0.0mm
09:49 52.2 °F /  11.2 °C 44.6 °F /  7 °C 30.2in /  1023.7hPa SO 4.7mph /  7.6km/h 9.7mph /  15.6km/h 75.2% 0in /  0.0mm
09:54 52.3 °F /  11.3 °C 44.6 °F /  7 °C 30.2in /  1023.8hPa SSO 5mph /  8km/h 10mph /  16.1km/h 74.5% 0in /  0.0mm
09:59 52.7 °F /  11.5 °C 44.6 °F /  7 °C 30.2in /  1023.8hPa SSO 5.2mph /  8.4km/h 8.5mph /  13.7km/h 73.8% 0in /  0.0mm
10:04 53.1 °F /  11.7 °C 44.6 °F /  7 °C 30.2in /  1023.8hPa SO 5.2mph /  8.4km/h 9mph /  14.5km/h 73% 0in /  0.0mm
10:09 53.2 °F /  11.8 °C 44.8 °F /  7.1 °C 30.2in /  1023.8hPa SO 5.2mph /  8.4km/h 8mph /  12.9km/h 73% 0in /  0.0mm
10:14 53.4 °F /  11.9 °C 44.6 °F /  7 °C 30.2in /  1023.8hPa SO 5.3mph /  8.5km/h 8.5mph /  13.7km/h 72.2% 0in /  0.0mm
10:19 53.8 °F /  12.1 °C 45 °F /  7.2 °C 30.2in /  1023.8hPa SSO 5.4mph /  8.7km/h 9.2mph /  14.8km/h 72% 0in /  0.0mm
10:24 54 °F /  12.2 °C 45 °F /  7.2 °C 30.2in /  1023.8hPa SSO 5.3mph /  8.5km/h 9.7mph /  15.6km/h 71.5% 0in /  0.0mm
10:29 54.1 °F /  12.3 °C 45.1 °F /  7.3 °C 30.2in /  1023.8hPa SSO 5.2mph /  8.4km/h 10mph /  16.1km/h 71.4% 0in /  0.0mm
10:34 54.7 °F /  12.6 °C 45.3 °F /  7.4 °C 30.2in /  1023.8hPa SSO 5.2mph /  8.4km/h 10.7mph /  17.2km/h 70.6% 0in /  0.0mm
10:39 54.7 °F /  12.6 °C 45.1 °F /  7.3 °C 30.2in /  1024.0hPa SSO 5.2mph /  8.4km/h 11mph /  17.7km/h 70% 0in /  0.0mm
10:44 54.9 °F /  12.7 °C 45.5 °F /  7.5 °C 30.2in /  1024.0hPa SSO 6.1mph /  9.8km/h 11mph /  17.7km/h 71% 0in /  0.0mm
10:49 55 °F /  12.8 °C 45.5 °F /  7.5 °C 30.2in /  1024.0hPa SSO 6.9mph /  11.1km/h 10.7mph /  17.2km/h 70.1% 0in /  0.0mm
10:54 55.4 °F /  13 °C 45.7 °F /  7.6 °C 30.2in /  1024.0hPa SSO 6.5mph /  10.5km/h 11mph /  17.7km/h 69.6% 0in /  0.0mm
10:59 55.8 °F /  13.2 °C 45.7 °F /  7.6 °C 30.2in /  1024.0hPa SSO 6.2mph /  10km/h 10.2mph /  16.4km/h 68.6% 0in /  0.0mm
11:04 56.1 °F /  13.4 °C 45.7 °F /  7.6 °C 30.2in /  1024.0hPa SO 6.2mph /  10km/h 10.4mph /  16.7km/h 68% 0in /  0.0mm
11:09 56.5 °F /  13.6 °C 45.9 °F /  7.7 °C 30.2in /  1024.1hPa SO 6.2mph /  10km/h 10mph /  16.1km/h 67.7% 0in /  0.0mm
11:14 56.7 °F /  13.7 °C 45.9 °F /  7.7 °C 30.2in /  1024.1hPa SO 5.8mph /  9.3km/h 11.5mph /  18.5km/h 67% 0in /  0.0mm
11:19 56.8 °F /  13.8 °C 45.9 °F /  7.7 °C 30.2in /  1024.1hPa SO 5.4mph /  8.7km/h 12mph /  19.3km/h 66.4% 0in /  0.0mm
11:24 57.2 °F /  14 °C 46 °F /  7.8 °C 30.2in /  1024.1hPa SSO 5.8mph /  9.4km/h 10.4mph /  16.7km/h 66% 0in /  0.0mm
11:29 57.6 °F /  14.2 °C 45.9 °F /  7.7 °C 30.2in /  1024.1hPa SO 6.2mph /  10km/h 11.4mph /  18.3km/h 65% 0in /  0.0mm
11:34 57.7 °F /  14.3 °C 45.9 °F /  7.7 °C 30.2in /  1024.1hPa SSO 6.2mph /  10km/h 12mph /  19.3km/h 64.9% 0in /  0.0mm
11:39 57.9 °F /  14.4 °C 46.2 °F /  7.9 °C 30.2in /  1024.1hPa SSO 6.2mph /  10km/h 10mph /  16.1km/h 65% 0in /  0.0mm
11:44 58.1 °F /  14.5 °C 46.2 °F /  7.9 °C 30.2in /  1024.0hPa SO 5.7mph /  9.1km/h 10.4mph /  16.7km/h 64.2% 0in /  0.0mm
11:49 58.3 °F /  14.6 °C 46.2 °F /  7.9 °C 30.2in /  1024.0hPa SO 5.2mph /  8.4km/h 10.4mph /  16.7km/h 64% 0in /  0.0mm
11:54 58.6 °F /  14.8 °C 46.2 °F /  7.9 °C 30.2in /  1024.0hPa SO 5.6mph /  9km/h 10mph /  16.1km/h 63.3% 0in /  0.0mm
11:59 59 °F /  15 °C 46.2 °F /  7.9 °C 30.2in /  1023.8hPa SSO 5.9mph /  9.5km/h 10.4mph /  16.7km/h 62.5% 0in /  0.0mm
12:04 59 °F /  15 °C 45.9 °F /  7.7 °C 30.2in /  1023.8hPa SO 5.9mph /  9.5km/h 10mph /  16.1km/h 62% 0in /  0.0mm
12:09 59.2 °F /  15.1 °C 46.2 °F /  7.9 °C 30.2in /  1023.8hPa SSO 5.9mph /  9.5km/h 10mph /  16.1km/h 62% 0in /  0.0mm
12:14 59.5 °F /  15.3 °C 46.2 °F /  7.9 °C 30.2in /  1023.6hPa SSO 5.7mph /  9.1km/h 9.2mph /  14.8km/h 61.3% 0in /  0.0mm
12:19 59.7 °F /  15.4 °C 46 °F /  7.8 °C 30.2in /  1023.6hPa SSO 5.4mph /  8.7km/h 9.2mph /  14.8km/h 60.8% 0in /  0.0mm
12:24 60.1 °F /  15.6 °C 46.2 °F /  7.9 °C 30.2in /  1023.6hPa SSO 5.3mph /  8.5km/h 9.2mph /  14.8km/h 60% 0in /  0.0mm
12:29 60.3 °F /  15.7 °C 45.9 °F /  7.7 °C 30.2in /  1023.3hPa SO 5.2mph /  8.4km/h 9.2mph /  14.8km/h 59.1% 0in /  0.0mm
12:34 60.3 °F /  15.7 °C 46.2 °F /  7.9 °C 30.2in /  1023.3hPa SSO 5.3mph /  8.5km/h 9mph /  14.5km/h 59.6% 0in /  0.0mm
12:39 60.4 °F /  15.8 °C 46.2 °F /  7.9 °C 30.2in /  1023.3hPa SO 5.4mph /  8.7km/h 8.1mph /  13km/h 59.1% 0in /  0.0mm
12:44 61 °F /  16.1 °C 46 °F /  7.8 °C 30.2in /  1023.0hPa SSO 5.4mph /  8.7km/h 9.2mph /  14.8km/h 58.2% 0in /  0.0mm
12:49 61 °F /  16.1 °C 46.2 °F /  7.9 °C 30.2in /  1023.0hPa SSO 5.4mph /  8.7km/h 9mph /  14.5km/h 58% 0in /  0.0mm
12:54 61.2 °F /  16.2 °C 46.2 °F /  7.9 °C 30.2in /  1023.0hPa SSO 5.3mph /  8.5km/h 10.4mph /  16.7km/h 57.7% 0in /  0.0mm
12:59 61.3 °F /  16.3 °C 46 °F /  7.8 °C 30.2in /  1022.8hPa SSO 5.2mph /  8.4km/h 10.4mph /  16.7km/h 57% 0in /  0.0mm
13:04 61.3 °F /  16.3 °C 46 °F /  7.8 °C 30.2in /  1022.8hPa SSO 5.9mph /  9.5km/h 10mph /  16.1km/h 57% 0in /  0.0mm
13:09 61.3 °F /  16.3 °C 46 °F /  7.8 °C 30.2in /  1022.8hPa Sur 6.4mph /  10.3km/h 8.1mph /  13km/h 57.2% 0in /  0.0mm
13:14 61.7 °F /  16.5 °C 46 °F /  7.8 °C 30.2in /  1022.5hPa SSO 5.5mph /  8.8km/h 10mph /  16.1km/h 56.6% 0in /  0.0mm
13:19 62.1 °F /  16.7 °C 46 °F /  7.8 °C 30.2in /  1022.5hPa SSO 4.7mph /  7.6km/h 10.4mph /  16.7km/h 56% 0in /  0.0mm
13:24 62.2 °F /  16.8 °C 46.2 °F /  7.9 °C 30.2in /  1022.5hPa SSO 5mph /  8km/h 9.2mph /  14.8km/h 55.9% 0in /  0.0mm
13:29 62.2 °F /  16.8 °C 46 °F /  7.8 °C 30.2in /  1022.3hPa SSO 5.2mph /  8.4km/h 9.2mph /  14.8km/h 55.3% 0in /  0.0mm
13:34 62.2 °F /  16.8 °C 46.2 °F /  7.9 °C 30.2in /  1022.3hPa SSO 5.3mph /  8.5km/h 9.2mph /  14.8km/h 55.6% 0in /  0.0mm
13:39 62.4 °F /  16.9 °C 46.8 °F /  8.2 °C 30.2in /  1022.3hPa SSO 5.4mph /  8.7km/h 9mph /  14.5km/h 56.2% 0in /  0.0mm
13:44 63 °F /  17.2 °C 46.6 °F /  8.1 °C 30.2in /  1022.1hPa SSO 4.7mph /  7.5km/h 8.1mph /  13km/h 55.4% 0in /  0.0mm
13:49 63 °F /  17.2 °C 46.6 °F /  8.1 °C 30.2in /  1022.1hPa SSO 4mph /  6.5km/h 8.1mph /  13km/h 55.1% 0in /  0.0mm
13:54 63.1 °F /  17.3 °C 46.6 °F /  8.1 °C 30.2in /  1022.1hPa SO 4.4mph /  7.1km/h 8.5mph /  13.7km/h 55% 0in /  0.0mm
13:59 63.3 °F /  17.4 °C 46.2 °F /  7.9 °C 30.2in /  1021.8hPa SSO 4.7mph /  7.6km/h 10.7mph /  17.2km/h 53.8% 0in /  0.0mm
14:04 63.7 °F /  17.6 °C 46.2 °F /  7.9 °C 30.2in /  1021.8hPa SO 5.3mph /  8.6km/h 12.3mph /  19.8km/h 53% 0in /  0.0mm
14:09 63.7 °F /  17.6 °C 46.2 °F /  7.9 °C 30.2in /  1021.8hPa SSO 5.9mph /  9.5km/h 13mph /  20.9km/h 53% 0in /  0.0mm
14:14 63.9 °F /  17.7 °C 45.3 °F /  7.4 °C 30.2in /  1021.5hPa SO 6.7mph /  10.8km/h 12.7mph /  20.4km/h 51% 0in /  0.0mm
14:19 64.2 °F /  17.9 °C 43.9 °F /  6.6 °C 30.2in /  1021.5hPa SO 7.4mph /  11.9km/h 13.8mph /  22.2km/h 47.6% 0in /  0.0mm
14:24 64.6 °F /  18.1 °C 43.5 °F /  6.4 °C 30.2in /  1021.5hPa SO 7.4mph /  11.9km/h 14mph /  22.5km/h 46.6% 0in /  0.0mm
14:29 64.8 °F /  18.2 °C 43.7 °F /  6.5 °C 30.2in /  1021.2hPa OSO 7.4mph /  11.9km/h 12.7mph /  20.4km/h 46.3% 0in /  0.0mm
14:34 64.9 °F /  18.3 °C 43.2 °F /  6.2 °C 30.2in /  1021.2hPa OSO 7.5mph /  12.1km/h 20.8mph /  33.5km/h 45% 0in /  0.0mm
14:39 65.1 °F /  18.4 °C 42.4 °F /  5.8 °C 30.2in /  1021.2hPa OSO 7.6mph /  12.2km/h 21mph /  33.8km/h 43.6% 0in /  0.0mm
14:44 65.5 °F /  18.6 °C 42.6 °F /  5.9 °C 30.2in /  1021.0hPa OSO 9.1mph /  14.6km/h 20mph /  32.2km/h 43.5% 0in /  0.0mm
14:49 65.7 °F /  18.7 °C 42.4 °F /  5.8 °C 30.2in /  1021.0hPa OSO 10.2mph /  16.4km/h 15mph /  24.1km/h 43% 0in /  0.0mm
14:54 65.7 °F /  18.7 °C 42.3 °F /  5.7 °C 30.2in /  1021.0hPa Oeste 9.3mph /  14.9km/h 13.8mph /  22.2km/h 42.5% 0in /  0.0mm
14:59 65.8 °F /  18.8 °C 43.2 °F /  6.2 °C 30.2in /  1020.9hPa OSO 8.5mph /  13.7km/h 14mph /  22.5km/h 43.8% 0in /  0.0mm
15:04 65.8 °F /  18.8 °C 43 °F /  6.1 °C 30.2in /  1020.9hPa OSO 7.3mph /  11.7km/h 11.8mph /  19km/h 43.3% 0in /  0.0mm
15:09 66 °F /  18.9 °C 43.3 °F /  6.3 °C 30.2in /  1020.9hPa OSO 6.4mph /  10.3km/h 13.8mph /  22.2km/h 43.9% 0in /  0.0mm
15:14 65.8 °F /  18.8 °C 43.7 °F /  6.5 °C 30.1in /  1020.7hPa OSO 7mph /  11.2km/h 14mph /  22.5km/h 44.7% 0in /  0.0mm
15:19 65.8 °F /  18.8 °C 44.1 °F /  6.7 °C 30.1in /  1020.7hPa OSO 7.4mph /  11.9km/h 10mph /  16.1km/h 45% 0in /  0.0mm
15:24 66 °F /  18.9 °C 44.6 °F /  7 °C 30.1in /  1020.7hPa SSO 6.7mph /  10.8km/h 10.7mph /  17.2km/h 45.8% 0in /  0.0mm
15:29 66.2 °F /  19 °C 43.9 °F /  6.6 °C 30.1in /  1020.7hPa SO 6.2mph /  10km/h 11mph /  17.7km/h 44.6% 0in /  0.0mm
15:34 66.4 °F /  19.1 °C 44.4 °F /  6.9 °C 30.1in /  1020.7hPa SO 6.2mph /  10km/h 10.4mph /  16.7km/h 45% 0in /  0.0mm
15:39 66.6 °F /  19.2 °C 44.1 °F /  6.7 °C 30.1in /  1020.7hPa SO 6.2mph /  10km/h 14mph /  22.5km/h 44.3% 0in /  0.0mm
15:44 66.6 °F /  19.2 °C 43.2 °F /  6.2 °C 30.1in /  1020.7hPa SO 6.6mph /  10.6km/h 14.5mph /  23.3km/h 42.6% 0in /  0.0mm
15:49 66.7 °F /  19.3 °C 42.6 °F /  5.9 °C 30.1in /  1020.7hPa OSO 6.9mph /  11.1km/h 15mph /  24.1km/h 41.5% 0in /  0.0mm
15:54 66.7 °F /  19.3 °C 42.8 °F /  6 °C 30.1in /  1020.7hPa SO 7.6mph /  12.2km/h 13mph /  20.9km/h 41.6% 0in /  0.0mm
15:59 66.9 °F /  19.4 °C 42.6 °F /  5.9 °C 30.1in /  1020.6hPa SO 8.1mph /  13km/h 13mph /  20.9km/h 41.3% 0in /  0.0mm
16:04 67.1 °F /  19.5 °C 42.6 °F /  5.9 °C 30.1in /  1020.6hPa SO 6.8mph /  11km/h 12.7mph /  20.4km/h 41.1% 0in /  0.0mm
16:09 66.9 °F /  19.4 °C 42.4 °F /  5.8 °C 30.1in /  1020.7hPa SO 5.9mph /  9.5km/h 13mph /  20.9km/h 41% 0in /  0.0mm
16:14 66.9 °F /  19.4 °C 42.4 °F /  5.8 °C 30.1in /  1020.7hPa SSO 6.8mph /  10.9km/h 10.4mph /  16.7km/h 41.2% 0in /  0.0mm
16:19 67.1 °F /  19.5 °C 43.2 °F /  6.2 °C 30.1in /  1020.7hPa SO 7.4mph /  11.9km/h 10mph /  16.1km/h 42% 0in /  0.0mm
16:24 67.3 °F /  19.6 °C 43.3 °F /  6.3 °C 30.1in /  1020.7hPa SO 5.9mph /  9.5km/h 9.2mph /  14.8km/h 42% 0in /  0.0mm
16:29 67.5 °F /  19.7 °C 43.5 °F /  6.4 °C 30.1in /  1020.7hPa SSO 4.7mph /  7.6km/h 9mph /  14.5km/h 41.9% 0in /  0.0mm
16:34 67.3 °F /  19.6 °C 43.3 °F /  6.3 °C 30.1in /  1020.7hPa SSO 4.5mph /  7.2km/h 9.2mph /  14.8km/h 42% 0in /  0.0mm
16:39 67.3 °F /  19.6 °C 43.5 °F /  6.4 °C 30.1in /  1020.8hPa SSO 4.3mph /  6.9km/h 9mph /  14.5km/h 42.1% 0in /  0.0mm
16:44 67.3 °F /  19.6 °C 43.3 °F /  6.3 °C 30.1in /  1020.8hPa SSO 4.3mph /  6.9km/h 7.4mph /  11.9km/h 42% 0in /  0.0mm
16:49 67.3 °F /  19.6 °C 43.3 °F /  6.3 °C 30.1in /  1020.8hPa SSO 4.3mph /  6.9km/h 7.6mph /  12.2km/h 42% 0in /  0.0mm
16:54 67.3 °F /  19.6 °C 43.3 °F /  6.3 °C 30.1in /  1020.8hPa Sur 4.2mph /  6.7km/h 8.1mph /  13km/h 42% 0in /  0.0mm
16:59 67.1 °F /  19.5 °C 43.2 °F /  6.2 °C 30.1in /  1020.7hPa Sur 4mph /  6.5km/h 8.1mph /  13km/h 41.8% 0in /  0.0mm
17:04 67.1 °F /  19.5 °C 43.2 °F /  6.2 °C 30.1in /  1020.7hPa Sur 4.2mph /  6.7km/h 8mph /  12.9km/h 42.1% 0in /  0.0mm
17:09 66.9 °F /  19.4 °C 43.7 °F /  6.5 °C 30.1in /  1020.7hPa Sur 4.3mph /  6.9km/h 7.4mph /  11.9km/h 42.8% 0in /  0.0mm
17:14 66.7 °F /  19.3 °C 44.4 °F /  6.9 °C 30.1in /  1020.6hPa Sur 4.3mph /  6.9km/h 7mph /  11.3km/h 44.4% 0in /  0.0mm
17:19 66.6 °F /  19.2 °C 45 °F /  7.2 °C 30.1in /  1020.6hPa Sur 4.3mph /  6.9km/h 7.4mph /  11.9km/h 45.7% 0in /  0.0mm
17:24 66 °F /  18.9 °C 45.5 °F /  7.5 °C 30.1in /  1020.6hPa Sur 4.5mph /  7.3km/h 7mph /  11.3km/h 47.2% 0in /  0.0mm
17:29 65.8 °F /  18.8 °C 45.9 °F /  7.7 °C 30.1in /  1020.6hPa Sur 4.7mph /  7.6km/h 7mph /  11.3km/h 48.4% 0in /  0.0mm
17:34 65.5 °F /  18.6 °C 46 °F /  7.8 °C 30.1in /  1020.6hPa Sur 4.3mph /  7km/h 6mph /  9.7km/h 49.4% 0in /  0.0mm
17:39 65.1 °F /  18.4 °C 46.2 °F /  7.9 °C 30.1in /  1020.8hPa SSO 4mph /  6.5km/h 6mph /  9.7km/h 50.4% 0in /  0.0mm
17:44 64.9 °F /  18.3 °C 46.4 °F /  8 °C 30.1in /  1020.8hPa Sur 3.5mph /  5.6km/h 5mph /  8km/h 51.1% 0in /  0.0mm
17:49 64.6 °F /  18.1 °C 46.6 °F /  8.1 °C 30.1in /  1020.8hPa Sur 3.1mph /  5km/h 5mph /  8km/h 52% 0in /  0.0mm
17:54 64.2 °F /  17.9 °C 46.4 °F /  8 °C 30.1in /  1020.8hPa SSE 3mph /  4.8km/h 5mph /  8km/h 52.5% 0in /  0.0mm
17:59 63.9 °F /  17.7 °C 46.6 °F /  8.1 °C 30.1in /  1020.7hPa SE 2.9mph /  4.7km/h 5mph /  8km/h 53.5% 0in /  0.0mm
18:04 63.3 °F /  17.4 °C 47.1 °F /  8.4 °C 30.1in /  1020.7hPa SE 2.9mph /  4.7km/h 5mph /  8km/h 55.4% 0in /  0.0mm
18:09 62.8 °F /  17.1 °C 47.1 °F /  8.4 °C 30.1in /  1020.8hPa ESE 2.9mph /  4.7km/h 5.2mph /  8.4km/h 56.6% 0in /  0.0mm
18:14 62.4 °F /  16.9 °C 46.9 °F /  8.3 °C 30.1in /  1020.8hPa SE 2.3mph /  3.7km/h 5mph /  8km/h 57.1% 0in /  0.0mm
18:19 62.1 °F /  16.7 °C 47.1 °F /  8.4 °C 30.1in /  1020.8hPa SE 1.8mph /  2.9km/h 5.2mph /  8.4km/h 58% 0in /  0.0mm
18:24 61.7 °F /  16.5 °C 47.1 °F /  8.4 °C 30.2in /  1021.0hPa SE 2.4mph /  3.9km/h 5.9mph /  9.5km/h 58.9% 0in /  0.0mm
18:29 61.3 °F /  16.3 °C 47.1 °F /  8.4 °C 30.2in /  1021.0hPa SSE 2.9mph /  4.7km/h 6mph /  9.7km/h 59.1% 0in /  0.0mm
18:34 61.2 °F /  16.2 °C 47.3 °F /  8.5 °C 30.2in /  1021.0hPa Oeste 3mph /  4.8km/h 5mph /  8km/h 60% 0in /  0.0mm
18:39 61 °F /  16.1 °C 47.1 °F /  8.4 °C 30.2in /  1021.2hPa SO 3.1mph /  5km/h 6.4mph /  10.3km/h 60.2% 0in /  0.0mm
18:44 61 °F /  16.1 °C 47.8 °F /  8.8 °C 30.2in /  1021.2hPa SO 3.4mph /  5.4km/h 10.4mph /  16.7km/h 62% 0in /  0.0mm
18:49 61.2 °F /  16.2 °C 48.2 °F /  9 °C 30.2in /  1021.2hPa SSO 3.6mph /  5.8km/h 10mph /  16.1km/h 62.3% 0in /  0.0mm
18:54 61.2 °F /  16.2 °C 48.6 °F /  9.2 °C 30.2in /  1021.3hPa SSO 4mph /  6.4km/h 7mph /  11.3km/h 63.5% 0in /  0.0mm
18:59 60.8 °F /  16 °C 49.3 °F /  9.6 °C 30.2in /  1021.3hPa SSO 4.3mph /  6.9km/h 9.2mph /  14.8km/h 65.9% 0in /  0.0mm
19:04 60.4 °F /  15.8 °C 49.8 °F /  9.9 °C 30.2in /  1021.3hPa SSO 4.5mph /  7.3km/h 9mph /  14.5km/h 67.8% 0in /  0.0mm
19:09 60.1 °F /  15.6 °C 50 °F /  10 °C 30.2in /  1021.4hPa SSO 4.7mph /  7.6km/h 10.4mph /  16.7km/h 69.5% 0in /  0.0mm
19:14 59.7 °F /  15.4 °C 50 °F /  10 °C 30.2in /  1021.4hPa SO 5.1mph /  8.2km/h 10mph /  16.1km/h 70.5% 0in /  0.0mm
19:19 59.5 °F /  15.3 °C 50 °F /  10 °C 30.2in /  1021.4hPa SO 5.4mph /  8.7km/h 9mph /  14.5km/h 71.1% 0in /  0.0mm
19:24 59.2 °F /  15.1 °C 50.2 °F /  10.1 °C 30.2in /  1021.8hPa SO 4.7mph /  7.5km/h 8mph /  12.9km/h 72% 0in /  0.0mm
19:29 59 °F /  15 °C 50.2 °F /  10.1 °C 30.2in /  1021.8hPa SSO 4mph /  6.5km/h 6mph /  9.7km/h 72.2% 0in /  0.0mm
19:34 58.8 °F /  14.9 °C 50.2 °F /  10.1 °C 30.2in /  1021.8hPa SSO 3.4mph /  5.4km/h 6mph /  9.7km/h 73% 0in /  0.0mm
19:39 58.6 °F /  14.8 °C 50 °F /  10 °C 30.2in /  1021.9hPa SSO 2.9mph /  4.7km/h 6mph /  9.7km/h 73% 0in /  0.0mm
19:44 58.6 °F /  14.8 °C 50.2 °F /  10.1 °C 30.2in /  1021.9hPa Sur 2.9mph /  4.7km/h 6.2mph /  10km/h 73.4% 0in /  0.0mm
19:49 58.5 °F /  14.7 °C 50.2 °F /  10.1 °C 30.2in /  1021.9hPa Sur 2.9mph /  4.7km/h 6.2mph /  10km/h 74% 0in /  0.0mm
19:54 58.3 °F /  14.6 °C 50 °F /  10 °C 30.2in /  1021.9hPa SE 3.5mph /  5.6km/h 6.9mph /  11.1km/h 74% 0in /  0.0mm
19:59 57.7 °F /  14.3 °C 50 °F /  10 °C 30.2in /  1021.9hPa SE 4mph /  6.5km/h 8.1mph /  13km/h 75.1% 0in /  0.0mm
20:04 57.4 °F /  14.1 °C 49.8 °F /  9.9 °C 30.2in /  1021.9hPa SE 4.4mph /  7.1km/h 8mph /  12.9km/h 76% 0in /  0.0mm
20:09 57 °F /  13.9 °C 49.8 °F /  9.9 °C 30.2in /  1022.0hPa SSE 4.7mph /  7.6km/h 8.1mph /  13km/h 77% 0in /  0.0mm
20:14 56.7 °F /  13.7 °C 49.8 °F /  9.9 °C 30.2in /  1022.0hPa Sur 5mph /  8km/h 8.1mph /  13km/h 77.8% 0in /  0.0mm
20:19 56.7 °F /  13.7 °C 50 °F /  10 °C 30.2in /  1022.0hPa SSO 5.2mph /  8.4km/h 8.1mph /  13km/h 78.4% 0in /  0.0mm
20:24 56.8 °F /  13.8 °C 50.2 °F /  10.1 °C 30.2in /  1022.0hPa Sur 4.9mph /  7.9km/h 8.1mph /  13km/h 78.3% 0in /  0.0mm
20:29 56.8 °F /  13.8 °C 50.2 °F /  10.1 °C 30.2in /  1022.0hPa Sur 4.7mph /  7.6km/h 7mph /  11.3km/h 78% 0in /  0.0mm
20:34 56.8 °F /  13.8 °C 50.2 °F /  10.1 °C 30.2in /  1022.0hPa SSE 4.5mph /  7.2km/h 6.2mph /  10km/h 78% 0in /  0.0mm
20:39 56.8 °F /  13.8 °C 50.2 °F /  10.1 °C 30.2in /  1022.0hPa Sur 4.3mph /  6.9km/h 9.2mph /  14.8km/h 78% 0in /  0.0mm
20:44 56.7 °F /  13.7 °C 50 °F /  10 °C 30.2in /  1022.0hPa Sur 4.8mph /  7.7km/h 9mph /  14.5km/h 78% 0in /  0.0mm
20:49 56.7 °F /  13.7 °C 49.8 °F /  9.9 °C 30.2in /  1022.0hPa SSE 5.2mph /  8.4km/h 8mph /  12.9km/h 78% 0in /  0.0mm
20:54 56.7 °F /  13.7 °C 49.8 °F /  9.9 °C 30.2in /  1022.1hPa SSE 4.7mph /  7.6km/h 8.5mph /  13.7km/h 78% 0in /  0.0mm
20:59 56.5 °F /  13.6 °C 49.6 °F /  9.8 °C 30.2in /  1022.1hPa SSE 4.3mph /  6.9km/h 9mph /  14.5km/h 78% 0in /  0.0mm
21:04 56.5 °F /  13.6 °C 49.8 °F /  9.9 °C 30.2in /  1022.1hPa Sur 3.9mph /  6.3km/h 7mph /  11.3km/h 78.5% 0in /  0.0mm
21:09 56.1 °F /  13.4 °C 49.8 °F /  9.9 °C 30.2in /  1022.2hPa SSE 3.6mph /  5.8km/h 6.9mph /  11.1km/h 79% 0in /  0.0mm
21:14 56.1 °F /  13.4 °C 49.6 °F /  9.8 °C 30.2in /  1022.2hPa Sur 4mph /  6.4km/h 7mph /  11.3km/h 79% 0in /  0.0mm
21:19 56.1 °F /  13.4 °C 49.6 °F /  9.8 °C 30.2in /  1022.2hPa Sur 4.3mph /  6.9km/h 7mph /  11.3km/h 79% 0in /  0.0mm
21:24 56.1 °F /  13.4 °C 49.5 °F /  9.7 °C 30.2in /  1022.2hPa SSO 4.3mph /  6.9km/h 8.1mph /  13km/h 78.2% 0in /  0.0mm
21:29 56.5 °F /  13.6 °C 49.5 °F /  9.7 °C 30.2in /  1022.1hPa SSO 4.3mph /  6.9km/h 8mph /  12.9km/h 77% 0in /  0.0mm
21:34 56.7 °F /  13.7 °C 49.1 °F /  9.5 °C 30.2in /  1022.1hPa Sur 4.3mph /  6.9km/h 7mph /  11.3km/h 76% 0in /  0.0mm
21:39 56.7 °F /  13.7 °C 49.3 °F /  9.6 °C 30.2in /  1022.1hPa Sur 4.3mph /  6.9km/h 6.9mph /  11.1km/h 76% 0in /  0.0mm
21:44 56.7 °F /  13.7 °C 49.3 °F /  9.6 °C 30.2in /  1022.1hPa Sur 4.2mph /  6.7km/h 7mph /  11.3km/h 76% 0in /  0.0mm
21:49 56.7 °F /  13.7 °C 49.1 °F /  9.5 °C 30.2in /  1022.1hPa SSO 4mph /  6.5km/h 6mph /  9.7km/h 75.7% 0in /  0.0mm
21:54 56.8 °F /  13.8 °C 48.9 °F /  9.4 °C 30.2in /  1022.1hPa SO 4mph /  6.5km/h 6mph /  9.7km/h 75% 0in /  0.0mm
21:59 56.8 °F /  13.8 °C 48.7 °F /  9.3 °C 30.2in /  1022.1hPa SO 4mph /  6.5km/h 5.9mph /  9.5km/h 74.3% 0in /  0.0mm
22:04 57 °F /  13.9 °C 48.7 °F /  9.3 °C 30.2in /  1022.1hPa SO 3.8mph /  6.1km/h 6.2mph /  10km/h 74% 0in /  0.0mm
22:09 57 °F /  13.9 °C 48.7 °F /  9.3 °C 30.2in /  1022.1hPa SSO 3.6mph /  5.8km/h 6mph /  9.7km/h 74% 0in /  0.0mm
22:14 56.8 °F /  13.8 °C 48.7 °F /  9.3 °C 30.2in /  1021.9hPa ESE 3.2mph /  5.2km/h 5.9mph /  9.5km/h 74.4% 0in /  0.0mm
22:19 55.9 °F /  13.3 °C 48.6 °F /  9.2 °C 30.2in /  1021.9hPa ESE 2.9mph /  4.7km/h 7.4mph /  11.9km/h 76.1% 0in /  0.0mm
22:24 55 °F /  12.8 °C 48.6 °F /  9.2 °C 30.2in /  1022.1hPa ESE 3.5mph /  5.6km/h 7mph /  11.3km/h 78.6% 0in /  0.0mm
22:29 54.7 °F /  12.6 °C 48.6 °F /  9.2 °C 30.2in /  1022.1hPa Este 4mph /  6.5km/h 5mph /  8km/h 79.6% 0in /  0.0mm
22:34 54.7 °F /  12.6 °C 48.6 °F /  9.2 °C 30.2in /  1022.1hPa ESE 2.8mph /  4.5km/h 4.6mph /  7.4km/h 79.8% 0in /  0.0mm
22:39 54.9 °F /  12.7 °C 48.4 °F /  9.1 °C 30.2in /  1022.1hPa Sur 1.8mph /  2.9km/h 5mph /  8km/h 79% 0in /  0.0mm
22:44 54.9 °F /  12.7 °C 48.4 °F /  9.1 °C 30.2in /  1022.1hPa SSO 2.1mph /  3.4km/h 5mph /  8km/h 78.7% 0in /  0.0mm
22:49 55.2 °F /  12.9 °C 48.4 °F /  9.1 °C 30.2in /  1022.1hPa SSO 2.4mph /  3.9km/h 5mph /  8km/h 77.4% 0in /  0.0mm
22:54 55.8 °F /  13.2 °C 48.2 °F /  9 °C 30.2in /  1022.2hPa SSO 2.7mph /  4.3km/h 5mph /  8km/h 76.1% 0in /  0.0mm
22:59 55.8 °F /  13.2 °C 48.4 °F /  9.1 °C 30.2in /  1022.2hPa SSO 2.9mph /  4.7km/h 4.6mph /  7.4km/h 75.8% 0in /  0.0mm
23:04 55.9 °F /  13.3 °C 48.2 °F /  9 °C 30.2in /  1022.2hPa Sur 2.4mph /  3.8km/h 5.8mph /  9.3km/h 75% 0in /  0.0mm
23:09 56.1 °F /  13.4 °C 48 °F /  8.9 °C 30.2in /  1022.2hPa SSE 2mph /  3.2km/h 6.9mph /  11.1km/h 74.3% 0in /  0.0mm
23:14 56.3 °F /  13.5 °C 47.8 °F /  8.8 °C 30.2in /  1022.2hPa SSE 3.5mph /  5.6km/h 8.5mph /  13.7km/h 73.4% 0in /  0.0mm
23:19 56.5 °F /  13.6 °C 47.8 °F /  8.8 °C 30.2in /  1022.2hPa Sur 4.7mph /  7.6km/h 9mph /  14.5km/h 72.8% 0in /  0.0mm
23:24 56.7 °F /  13.7 °C 47.5 °F /  8.6 °C 30.2in /  1022.4hPa SSE 4.3mph /  6.9km/h 6.9mph /  11.1km/h 71.5% 0in /  0.0mm
23:29 56.8 °F /  13.8 °C 47.3 °F /  8.5 °C 30.2in /  1022.4hPa SSO 4mph /  6.5km/h 7mph /  11.3km/h 70.5% 0in /  0.0mm
23:34 57.4 °F /  14.1 °C 47.3 °F /  8.5 °C 30.2in /  1022.4hPa Sur 3.4mph /  5.5km/h 6mph /  9.7km/h 69.1% 0in /  0.0mm
23:39 57.7 °F /  14.3 °C 47.1 °F /  8.4 °C 30.2in /  1022.7hPa SO 2.9mph /  4.7km/h 8.7mph /  14km/h 67.8% 0in /  0.0mm
23:44 58.3 °F /  14.6 °C 47.3 °F /  8.5 °C 30.2in /  1022.7hPa SO 3.7mph /  5.9km/h 12.7mph /  20.4km/h 66.5% 0in /  0.0mm
23:49 59.2 °F /  15.1 °C 47.3 °F /  8.5 °C 30.2in /  1022.7hPa SO 4.3mph /  6.9km/h 13mph /  20.9km/h 64.9% 0in /  0.0mm
23:54 59.7 °F /  15.4 °C 47.3 °F /  8.5 °C 30.2in /  1022.7hPa OSO 5.3mph /  8.6km/h 15mph /  24.1km/h 63.6% 0in /  0.0mm
23:59 60.3 °F /  15.7 °C 47.3 °F /  8.5 °C 30.2in /  1022.7hPa SO 6.2mph /  10km/h 15mph /  24.1km/h 62.4% 0in /  0.0mm
Murcia-Puente Tocinos, España
Compliments of Weather Underground - 3 mb

La estación de MeteoMurcia.com, publica sus datos en los siguientes proyectos:

Weather Underground PWS IMURCIAP2 Meteoclimatic www.awekas.at

W3Counter
Web Analytics